Gokhan Kokcu

Chefscout - Sivasspor
3 Feb 2028
Donnerstag
Verarbeitung

Persönlichkeit

Anpassungsfähigkeit (12) Ehrgeiz (17) Kontroverse (15) Loyalität (6) Druck (17) Professionalität (13) Fairness (19) Temperament (15)

Profil

Trainerstil Demokratisch
Lizenz Kontinentale Pro
Entschlossenheit 8
Menschenführung 6
Motivation 9
Disziplin 8
Arbeitszufriedenheit
45%
Ermüdung
0%
Rolle Chefscout
Gehalt 27.0K p/W
Vertrag 14.03.2029

Leistung

Verhalten Gut
Trainingseffektivität
21%
Spielerentwicklung
20%
Verletzungsprävention
55%
Taktische Umsetzung
55%

Letzte Ereignisse

Nahm an einer Scouting-Besprechung teil jetzt
Empfahl ein Transferziel jetzt
Nahm an einer Scouting-Besprechung teil jetzt
Empfahl ein Transferziel jetzt
Empfahl ein Transferziel jetzt
Empfahl ein Transferziel 7T her
Empfahl ein Transferziel 7T her
Empfahl ein Transferziel 7T her

Aktuell beobachtet

162
Spieler Verein Status Fähigkeit Vertrauen Beobachtet Zuletzt beobachtet Letzte Stimme
Mohammad Mehdi Mohebi Kasimpasa Aktiv 116 / 116 66% 1 01.01.2028 Befürworten
Mehdi Hashemnejad Foolad Aktiv 116 / 118 67% 1 01.01.2028 Befürworten
Mateo Peralta Danubio Aktiv 110 / 111 40% 2 26.10.2027 -
Timofey Simanenka Gomel Aktiv 97 / 92 40% 2 26.10.2027 -
Chinedu Nwosu Bendel Insurance Aktiv 89 / 79 40% 1 26.10.2027 -
Sebastián Ramírez Jaguares Aktiv 115 / 107 40% 2 24.10.2027 -
Marvin Illary Helsingborg Aktiv 77 / 92 40% 1 24.10.2027 -
Diogo Guzmán Montevideo City Torque Aktiv 112 / 121 40% 3 23.10.2027 -
Chimobi Igwilo Rangers International Aktiv 96 / 108 40% 2 23.10.2027 -
Abdulateef Yusuff Chikhura Aktiv 77 / 82 40% 2 21.10.2027 -
Abdulrahman Hamisu Niger Tornadoes Aktiv 79 / 97 40% 2 21.10.2027 -
Sebastian Olderheim Stabaek Aktiv 102 / 122 40% 1 21.10.2027 -
Adriangel Torrealba Llaneros Aktiv 83 / 81 40% 1 19.10.2027 -
Bryan Caicedo Leones Aktiv 100 / 115 40% 1 19.10.2027 -
Fredrik Ardraa Stromsgodset Aktiv 104 / 121 40% 1 19.10.2027 -
Oscar Otero Atletico Venezuela Aktiv 94 / 104 40% 2 14.10.2027 -
Franco Minerva Platense Aktiv 122 / 131 40% 1 14.10.2027 -
Mateo Silvetti Los Angeles Football Club Aktiv 127 / 132 40% 2 12.10.2027 -
Mustapha Umar Kano Pillars Aktiv 89 / 103 40% 1 12.10.2027 -
Bop Guèye Haugesund Aktiv 97 / 108 40% 1 12.10.2027 -
Joel Ezra Enyimba Aktiv 97 / 99 40% 2 10.10.2027 -
Jhon Renteria Sarmiento Aktiv 107 / 119 40% 1 10.10.2027 -
Onuorah Onyedika Kun Khalifat Aktiv 93 / 99 40% 1 06.10.2027 -
Matías Canedo Rampla Juniors Aktiv 81 / 96 40% 1 05.10.2027 -
Wisdom Udom Bendel Insurance Aktiv 78 / 79 40% 1 04.10.2027 -
Ángel Aguayo Sol de America Aktiv 92 / 88 40% 1 23.08.2027 -
Samuel Posada Leones Aktiv 86 / 91 40% 1 23.08.2027 -
Lucas Camejo River Plate Aktiv 90 / 93 40% 1 23.08.2027 -
Matías Gómez Granada Aktiv 110 / 136 40% 5 13.07.2027 -
Keagan Tau Ajax Cape Town Aktiv 108 / 89 40% 1 13.07.2027 -
Santiago Hezze Chaves Aktiv 132 / 133 62% 1 28.06.2027 Befürworten
Eduardo Felicíssimo Sporting CP Aktiv 123 / 119 40% 1 15.06.2027 -
Davide Bartesaghi AC Milan Aktiv 122 / 142 40% 2 31.05.2027 -
Ernie Weaver AFC Wimbledon Aktiv 114 / 113 40% 1 31.05.2027 -
Joel McGregor Swindon Town Aktiv 93 / 102 40% 2 10.05.2027 -
Gonçalo Oliveira Benfica Aktiv 104 / 122 40% 1 10.05.2027 -
Rivaldo Grobler Free State Stars Aktiv 91 / 109 40% 1 09.05.2027 -
Jofre Torrents Ajax Aktiv 123 / 115 40% 2 08.05.2027 -
Jan Bürger Gillingham Aktiv 119 / 128 40% 2 08.05.2027 -
Ismail Al Suwaidi Al Fujairah Aktiv 117 / 125 40% 1 06.05.2027 -
Juan Giménez Celta Aktiv 116 / 118 40% 1 06.05.2027 -
Tiago Freitas Benfica Aktiv 99 / 115 40% 1 03.05.2027 -
Caleb Yirenkyi Coventry City Aktiv 144 / 153 40% 3 02.05.2027 -
Ethan Williams Peterborough United Aktiv 103 / 133 40% 2 02.05.2027 -
Hazeem Bakre Crawley Town Aktiv 79 / 84 40% 2 30.04.2027 -
Pietro Reggiori Pro Patria Aktiv 88 / 89 40% 1 30.04.2027 -
Kirill Glebov CSKA Moscow Aktiv 121 / 123 40% 1 30.04.2027 -
André Miranda Porto Aktiv 109 / 112 40% 1 28.04.2027 -
Thomas Waddingham Portsmouth Aktiv 105 / 98 40% 1 27.04.2027 -
Josh King Chelsea Aktiv 145 / 153 40% 1 27.04.2027 -
João Abreu Porto Aktiv 79 / 89 40% 1 26.04.2027 -
Jayden Addai Como Aktiv 143 / 144 40% 1 25.04.2027 -
Othmane Maamma Watford Aktiv 134 / 137 40% 8 24.04.2027 -
Lander Astiazarán Real Sociedad Aktiv 105 / 100 40% 2 22.04.2027 -
Matvey Kislyak CSKA Moscow Aktiv 127 / 148 40% 1 22.04.2027 -
Edvin Austbø West Ham United Aktiv 140 / 139 40% 2 20.04.2027 -
Ruan Alanyaspor Aktiv 131 / 137 40% 1 20.04.2027 -
Luke Baartman ES Mostaganem Aktiv 92 / 116 40% 1 19.04.2027 -
Christos Mouzakitis Hull City Aktiv 131 / 141 40% 2 15.04.2027 -
Paulo Cardoso Sporting CP Aktiv 88 / 98 40% 1 14.04.2027 -
Zack Nelson Bromley Aktiv 100 / 90 40% 2 13.04.2027 -
Leo Castledine Middlesbrough Aktiv 134 / 144 40% 2 08.04.2027 -
Daniel Vernattus Metalist Aktiv 88 / 95 40% 1 07.04.2027 -
Thulani Dala Platinum Stars Aktiv 88 / 114 40% 1 05.04.2027 -
David Turnbull Cardiff City Aktiv 128 / 133 40% 2 08.03.2027 -
Finn Azaz Southampton Aktiv 133 / 120 40% 1 08.03.2027 -
Ronald Swansea City Aktiv 135 / 127 40% 1 03.03.2027 -
Batista Mendy Trabzonspor Aktiv 138 / 149 40% 1 03.03.2027 -
Ahmed Kutucu Konyaspor Aktiv 126 / 117 40% 7 01.03.2027 -
Aral Şimşir Trabzonspor Aktiv 131 / 130 40% 5 01.03.2027 -
Noah Sadiki Sunderland Aktiv 138 / 138 40% 1 14.02.2027 -
Carlos Vicente Birmingham Aktiv 150 / 143 40% 1 14.02.2027 -
Tshepang Moremi Orlando Pirates Aktiv 110 / 107 40% 4 13.02.2027 -
Romano Schmid Frosinone Aktiv 143 / 126 40% 1 13.02.2027 -
Mduduzi Shabalala Kaizer Chiefs Aktiv 117 / 106 40% 2 12.02.2027 -
Derry Murkin Derby County Aktiv 129 / 135 40% 1 10.02.2027 -
Kasey McAteer Ipswich Town Aktiv 125 / 129 40% 1 10.02.2027 -
Eduard Spertsyan Al-Ahli Aktiv 151 / 157 40% 1 10.02.2027 -
Ollie Tanner Cardiff City Aktiv 120 / 100 40% 1 09.02.2027 -
Jack Rudoni Coventry City Aktiv 132 / 129 40% 1 09.02.2027 -
Scott Twine Bristol City Aktiv 128 / 136 40% 1 09.02.2027 -
Ernest Muçi Trabzonspor Aktiv 136 / 130 40% 2 08.02.2027 -
Zeki Amdouni Burnley Aktiv 134 / 138 40% 3 08.02.2027 -
Crysencio Summerville Al-Hilal Aktiv 133 / 138 40% 1 07.02.2027 -
Derensili Sanches Fernandes Huddersfield Town Aktiv 120 / 133 40% 1 07.02.2027 -
Mandla Erasmus SuperSport United Aktiv 125 / 109 40% 2 05.02.2027 -
Sergio Lozano Jagiellonia Aktiv 118 / 129 40% 1 05.02.2027 -
Yusuf Özdemir Alanyaspor Aktiv 129 / 112 40% 2 04.02.2027 -
Amine Adli Bournemouth Aktiv 151 / 160 40% 1 04.02.2027 -
Isaiah Jones Luton Town Aktiv 115 / 115 40% 1 02.02.2027 -
Álex Centelles Levski Aktiv 128 / 122 40% 1 01.02.2027 -
Festy Ebosele Basaksehir Aktiv 122 / 118 40% 1 01.02.2027 -
Jack McGlynn Stoke City Aktiv 125 / 140 40% 1 01.02.2027 -
Welington Southampton Aktiv 128 / 129 40% 1 27.01.2027 -
Dion Beljo Standard Liege Aktiv 131 / 132 66% 1 18.01.2027 Befürworten
Tom Fellows Southampton Aktiv 132 / 147 40% 1 18.01.2027 -
Petar Stanić Ludogorets Aktiv 132 / 139 40% 1 18.01.2027 -
Hakim Sulemana Medeama Aktiv 113 / 106 40% 1 11.01.2027 -
Malick Fofana Sunderland Aktiv 148 / 150 40% 1 11.01.2027 -
Brian Brobbey Sunderland Aktiv 130 / 156 40% 1 01.01.2027 -
Domagoj Drožđek Tractor Aktiv 122 / 109 40% 1 31.12.2026 Mehr Infos nötig
Bradley Fink Wycombe Wanderers Aktiv 108 / 126 40% 1 29.12.2026 -
Christian Saydee Wigan Athletic Aktiv 103 / 103 40% 1 29.12.2026 -
Robert Mizo Ashanti Gold Aktiv 95 / 108 40% 1 28.12.2026 -
Papa Ndiaga Yade Oleksandriya Aktiv 106 / 107 40% 1 27.12.2026 -
Niall Ennis Blackpool Aktiv 108 / 95 40% 1 27.12.2026 -
Yousef Salech Cardiff City Aktiv 129 / 126 40% 3 25.12.2026 -
Joe Gelhardt Hull City Aktiv 143 / 131 40% 1 25.12.2026 -
Luciano Gondou CSKA Moscow Aktiv 122 / 125 40% 2 24.12.2026 -
Ruben van Bommel Ferencvaros Aktiv 129 / 132 40% 1 24.12.2026 -
Ebrima Singhateh Jablonec Aktiv 117 / 122 40% 1 24.12.2026 -
Themba Ngcobo SuperSport United Aktiv 127 / 128 40% 4 23.12.2026 -
Mees Rijks Bristol Rovers Aktiv 113 / 121 40% 1 21.12.2026 -
Sam Dalby Bolton Wanderers Aktiv 126 / 98 40% 1 20.12.2026 -
Pablo Rodríguez Lech Aktiv 130 / 124 40% 1 20.12.2026 -
Shahriar Dejagah Tractor Aktiv 113 / 114 40% 2 19.12.2026 -
Yaroslav Gladyshev Dinamo Moscow Aktiv 118 / 131 40% 1 18.12.2026 -
Sam Bell Bristol City Aktiv 113 / 117 40% 2 16.12.2026 -
Ammar Ramadan DAC Dunajska Streda Aktiv 124 / 120 40% 1 16.12.2026 -
Aidomo Emakhu Oxford United Aktiv 125 / 136 40% 1 13.12.2026 -
Bojan Radulović Huddersfield Town Aktiv 115 / 117 40% 1 13.12.2026 -
Luis Vázquez Birmingham Aktiv 133 / 134 40% 2 12.12.2026 -
Iwan Morgan Grimsby Town Aktiv 102 / 99 40% 1 12.12.2026 -
Ramiro Ruiz Rodríguez Atlético Tucumán Aktiv 123 / 119 40% 2 10.12.2026 -
Tomás González Piast Aktiv 115 / 112 40% 1 10.12.2026 -
Tyrese Campbell Sheffield United Aktiv 118 / 130 40% 2 09.12.2026 -
Tom Cannon Sheffield United Aktiv 135 / 133 40% 1 08.12.2026 -
Morgan Whittaker Middlesbrough Aktiv 122 / 139 40% 1 07.12.2026 -
Dávid Strelec Middlesbrough Aktiv 143 / 140 40% 2 06.12.2026 -
Wilson Isidor Sunderland Aktiv 147 / 149 40% 4 03.12.2026 -
Martin Sekulić Ural Aktiv 103 / 108 40% 1 03.12.2026 -
Richard Koné Queens Park Rangers Aktiv 130 / 131 40% 1 02.12.2026 -
Aune Heggebø West Bromwich Albion Aktiv 130 / 115 40% 1 30.11.2026 -
Eren Aydın Zira Aktiv 101 / 109 40% 1 28.11.2026 -
Seedy Jatta Sturm Graz Aktiv 123 / 113 40% 1 26.11.2026 -
Rilind Nivokazi Sion Aktiv 112 / 119 40% 2 25.11.2026 -
Ştefan Baiaram Universitatea Craiova Aktiv 127 / 119 40% 1 22.11.2026 -
Bertuğ Yıldırım Basaksehir Aktiv 116 / 117 40% 1 21.11.2026 -
Tommy Conway Middlesbrough Aktiv 117 / 110 40% 1 21.11.2026 -
Giacomo Raspadori Atalanta Aktiv 142 / 138 40% 1 20.11.2026 -
Zakaria Aboukhlal Torino Aktiv 140 / 139 40% 1 20.11.2026 -
Assad Al Hamlawi Universitatea Craiova Aktiv 114 / 120 40% 1 18.11.2026 -
Youssoufa Moukoko FC Copenhagen Aktiv 126 / 113 40% 1 18.11.2026 -
Andri Guðjohnsen Blackburn Rovers Aktiv 115 / 127 40% 1 17.11.2026 -
Manfred Ugalde Spartak Moscow Aktiv 130 / 130 40% 1 14.11.2026 -
Mustafa Sol Istanbulspor Aktiv 97 / 98 40% 1 14.11.2026 -
Mandla Mahlangu Ajax Cape Town Aktiv 100 / 113 40% 1 14.11.2026 -
Sota Kitano Luzern Aktiv 130 / 129 40% 3 10.11.2026 -
Güven Yalçın Alanyaspor Aktiv 125 / 117 40% 2 10.11.2026 -
Mauro Valiente Estudiantes Aktiv 117 / 114 40% 1 09.11.2026 -
Leandro Godoy CSKA Sofia Aktiv 113 / 110 40% 1 09.11.2026 -
Bamba Dieng Crvena Zvezda Aktiv 135 / 126 40% 1 08.11.2026 -
Alexis Cuello San Lorenzo Aktiv 132 / 121 40% 1 08.11.2026 -
Rodrigo Huescas FC Copenhagen Aktiv 136 / 141 40% 1 08.11.2026 -
Caolan Boyd-Munce Wycombe Wanderers Aktiv 131 / 134 40% 1 08.11.2026 -
Alexandr Chernikov Krasnodar Aktiv 128 / 129 40% 1 08.11.2026 -
Bénie Traoré New York City Aktiv 128 / 116 40% 1 05.11.2026 -
David Ankeye Zeleznicar Pancevo Aktiv 111 / 108 40% 1 04.11.2026 -
Philippe Keny Zurich Aktiv 126 / 105 40% 1 03.11.2026 -
Musa Barrow Al-Khaleej Aktiv 141 / 153 40% 1 02.11.2026 -
Francis Nzaba Antalyaspor Aktiv 104 / 93 69% 1 24.08.2026 Befürworten
Gabriel Jesus Barcelona Aktiv 151 / 142 40% 1 17.08.2026 -